Time;durP1;ratioP1;P1;durP2;ratioP2;P2;SDS_P1;SDS_P2;PMS_P1;PMS_P2;Temp;Humidity;BMP_temperature;BMP_pressure;BME280_temperature;BME280_humidity;BME280_pressure;Samples;Min_cycle;Max_cycle;Signal;HPM_P1;HPM_P2
2023/04/06 00:01:41;;;;;;;5.53;4.60;;;4.40;99.90;;;;;;4895053;29;20487;-74
2023/04/06 00:04:08;;;;;;;7.63;3.83;;;4.30;99.90;;;;;;4872198;29;20483;-74
2023/04/06 00:06:37;;;;;;;8.07;4.70;;;4.30;99.90;;;;;;4884360;29;21148;-74
2023/04/06 00:09:05;;;;;;;6.43;4.03;;;4.30;99.90;;;;;;4884932;29;20469;-76
2023/04/06 00:11:32;;;;;;;7.27;4.10;;;4.30;99.90;;;;;;4884350;29;20920;-74
2023/04/06 00:14:00;;;;;;;14.03;4.23;;;4.40;99.90;;;;;;4891861;29;20514;-74
2023/04/06 00:16:27;;;;;;;8.30;3.60;;;4.20;99.90;;;;;;4872204;29;20514;-73
2023/04/06 00:18:54;;;;;;;6.43;4.00;;;4.20;99.90;;;;;;4881322;29;20502;-75
2023/04/06 00:21:23;;;;;;;8.87;4.90;;;4.10;99.90;;;;;;4863160;29;20467;-74
2023/04/06 00:23:52;;;;;;;7.77;3.80;;;4.00;99.90;;;;;;4886817;29;20670;-74
2023/04/06 00:26:19;;;;;;;10.03;3.77;;;4.00;99.90;;;;;;4885995;29;21482;-73
2023/04/06 00:28:47;;;;;;;4.23;3.83;;;3.90;99.90;;;;;;4880005;29;20466;-73
2023/04/06 00:31:14;;;;;;;9.27;4.40;;;3.80;99.90;;;;;;4879574;29;20445;-75
2023/04/06 00:33:41;;;;;;;7.57;3.87;;;3.80;99.90;;;;;;4887738;29;21470;-74
2023/04/06 00:36:09;;;;;;;4.40;3.03;;;3.90;99.90;;;;;;4890203;29;20930;-73
2023/04/06 00:38:36;;;;;;;10.77;5.20;;;4.00;99.90;;;;;;4889370;29;20441;-73
2023/04/06 00:41:07;;;;;;;6.40;3.97;;;3.90;99.90;;;;;;4882852;29;20518;-74
2023/04/06 00:43:34;;;;;;;5.93;4.27;;;3.90;99.90;;;;;;4886833;29;20489;-74
2023/04/06 00:46:01;;;;;;;4.53;3.93;;;3.80;99.90;;;;;;4895236;29;20735;-75
2023/04/06 00:48:30;;;;;;;9.07;4.50;;;3.70;99.90;;;;;;4889233;29;20992;-73
2023/04/06 00:50:59;;;;;;;10.27;4.60;;;3.80;99.90;;;;;;4882188;29;21116;-74
2023/04/06 00:53:26;;;;;;;9.90;4.30;;;3.80;99.90;;;;;;4885290;29;20481;-74
2023/04/06 00:55:54;;;;;;;5.73;3.23;;;3.60;99.90;;;;;;4876254;29;20951;-74
2023/04/06 00:58:23;;;;;;;9.80;5.13;;;3.60;99.90;;;;;;4884491;29;20559;-74
2023/04/06 01:00:50;;;;;;;9.20;5.50;;;3.40;99.90;;;;;;4894339;29;20506;-75
2023/04/06 01:03:18;;;;;;;9.03;5.77;;;3.40;99.90;;;;;;4881765;29;21028;-75
2023/04/06 01:05:45;;;;;;;7.27;4.33;;;3.70;99.90;;;;;;4852693;29;20475;-75
2023/04/06 01:08:12;;;;;;;6.10;4.63;;;3.80;99.90;;;;;;4878980;29;20537;-74
2023/04/06 01:10:41;;;;;;;6.37;4.07;;;3.60;99.90;;;;;;4904904;29;20468;-74
2023/04/06 01:13:08;;;;;;;4.67;4.20;;;3.60;99.90;;;;;;4886209;29;20460;-74
2023/04/06 01:15:39;;;;;;;10.30;5.70;;;3.50;99.90;;;;;;4879433;29;20648;-74
2023/04/06 01:18:11;;;;;;;6.87;4.83;;;3.40;99.90;;;;;;4891242;29;20498;-73
2023/04/06 01:20:38;;;;;;;6.63;4.10;;;3.40;99.90;;;;;;4885024;29;20443;-75
2023/04/06 01:23:07;;;;;;;7.20;4.60;;;3.40;99.90;;;;;;4884080;29;20550;-74
2023/04/06 01:25:34;;;;;;;10.40;4.77;;;3.20;99.90;;;;;;4883948;29;21537;-74
2023/04/06 01:28:01;;;;;;;6.50;3.77;;;3.30;99.90;;;;;;4886023;29;20472;-73
2023/04/06 01:30:29;;;;;;;13.83;5.17;;;3.40;99.90;;;;;;4877708;29;20940;-75
2023/04/06 01:32:58;;;;;;;11.13;5.40;;;3.40;99.90;;;;;;4881631;29;20461;-76
2023/04/06 01:35:28;;;;;;;7.87;4.83;;;3.30;99.90;;;;;;4882670;29;20762;-73
2023/04/06 01:37:55;;;;;;;6.73;3.90;;;3.20;99.90;;;;;;4894309;29;20572;-74
2023/04/06 01:40:25;;;;;;;3.93;3.40;;;3.30;99.90;;;;;;4890663;29;20438;-75
2023/04/06 01:42:52;;;;;;;5.43;4.20;;;3.40;99.90;;;;;;4880039;29;20501;-73
2023/04/06 01:45:19;;;;;;;14.83;5.73;;;3.50;99.90;;;;;;4878028;29;20467;-74
2023/04/06 01:47:46;;;;;;;6.10;4.17;;;3.50;99.90;;;;;;4881586;29;20494;-73
2023/04/06 01:50:13;;;;;;;8.20;3.70;;;3.40;99.90;;;;;;4852359;29;22797;-73
2023/04/06 01:52:41;;;;;;;4.63;4.00;;;3.30;99.90;;;;;;4883862;29;20963;-74
2023/04/06 01:55:08;;;;;;;8.40;4.30;;;3.20;99.90;;;;;;4841210;29;20458;-73
2023/04/06 01:57:36;;;;;;;20.87;4.27;;;3.20;99.90;;;;;;4892485;29;20458;-75
2023/04/06 02:00:04;;;;;;;7.00;4.27;;;3.10;99.90;;;;;;4886318;29;20503;-74
2023/04/06 02:02:31;;;;;;;6.63;4.63;;;3.10;99.90;;;;;;4887208;29;20482;-74
2023/04/06 02:04:59;;;;;;;6.90;3.50;;;3.10;99.90;;;;;;4890104;29;20462;-74
2023/04/06 02:07:27;;;;;;;5.83;5.20;;;3.10;99.90;;;;;;4912782;29;20452;-74
2023/04/06 02:09:57;;;;;;;7.63;3.70;;;3.10;99.90;;;;;;4891655;29;20510;-74
2023/04/06 02:12:24;;;;;;;6.87;6.20;;;3.10;99.90;;;;;;4893180;29;20521;-73
2023/04/06 02:14:53;;;;;;;11.60;4.73;;;3.20;99.90;;;;;;4882138;29;20466;-74
2023/04/06 02:17:20;;;;;;;8.13;4.10;;;3.20;99.90;;;;;;4881179;29;20459;-73
2023/04/06 02:19:47;;;;;;;9.77;5.20;;;3.10;99.90;;;;;;4888148;29;20466;-73
2023/04/06 02:22:15;;;;;;;6.90;6.10;;;3.00;99.90;;;;;;4889175;29;20441;-73
2023/04/06 02:24:42;;;;;;;6.10;4.90;;;3.10;99.90;;;;;;4885528;29;20462;-75
2023/04/06 02:27:10;;;;;;;11.43;5.83;;;3.00;99.90;;;;;;4877249;29;20536;-73
2023/04/06 02:29:37;;;;;;;5.87;3.77;;;3.10;99.90;;;;;;4880717;29;20462;-75
2023/04/06 02:32:07;;;;;;;8.13;5.50;;;3.10;99.90;;;;;;4884493;29;20526;-73
2023/04/06 02:34:35;;;;;;;18.20;5.90;;;3.00;99.90;;;;;;4893096;29;20462;-73
2023/04/06 02:37:02;;;;;;;12.40;7.17;;;2.90;99.90;;;;;;4879116;29;20722;-73
2023/04/06 02:39:29;;;;;;;5.70;4.30;;;2.90;99.90;;;;;;4860630;29;20438;-73
2023/04/06 02:41:59;;;;;;;5.10;3.73;;;2.90;99.90;;;;;;4873456;29;20453;-79
2023/04/06 02:44:27;;;;;;;7.10;5.13;;;2.90;99.90;;;;;;4893962;29;20455;-74
2023/04/06 02:46:54;;;;;;;10.60;5.50;;;2.80;99.90;;;;;;4894254;29;20458;-73
2023/04/06 02:49:23;;;;;;;6.47;3.93;;;2.70;99.90;;;;;;4891147;29;20530;-74
2023/04/06 02:51:50;;;;;;;10.83;6.30;;;2.70;99.90;;;;;;4884199;29;20916;-73
2023/04/06 02:54:20;;;;;;;18.50;7.00;;;2.80;99.90;;;;;;4882178;29;21148;-74
2023/04/06 02:56:48;;;;;;;9.57;6.67;;;2.80;99.90;;;;;;4889929;29;20469;-73
2023/04/06 02:59:15;;;;;;;10.70;5.63;;;2.80;99.90;;;;;;4871539;29;20864;-73
2023/04/06 03:01:45;;;;;;;19.07;5.70;;;2.80;99.90;;;;;;4872880;29;20925;-73
2023/04/06 03:04:12;;;;;;;12.83;6.57;;;2.80;99.90;;;;;;4896576;29;20490;-76
2023/04/06 03:06:41;;;;;;;10.07;4.10;;;2.80;99.90;;;;;;4891653;29;20462;-73
2023/04/06 03:09:08;;;;;;;7.43;5.40;;;2.70;99.90;;;;;;4884623;29;20767;-73
2023/04/06 03:11:36;;;;;;;7.43;4.83;;;2.60;99.90;;;;;;4889124;29;20458;-74
2023/04/06 03:14:03;;;;;;;9.70;5.97;;;2.60;99.90;;;;;;4879167;29;20553;-74
2023/04/06 03:16:31;;;;;;;13.10;6.53;;;2.60;99.90;;;;;;4901806;29;20445;-74
2023/04/06 03:18:58;;;;;;;10.47;5.53;;;2.50;99.90;;;;;;4886366;29;20525;-74
2023/04/06 03:21:25;;;;;;;7.60;4.87;;;2.50;99.90;;;;;;4882057;29;20475;-73
2023/04/06 03:23:53;;;;;;;11.17;5.77;;;2.40;99.90;;;;;;4888895;29;20567;-74
2023/04/06 03:26:22;;;;;;;14.23;8.53;;;2.40;99.90;;;;;;4884121;29;20482;-74
2023/04/06 03:28:52;;;;;;;9.60;4.40;;;2.50;99.90;;;;;;4876075;29;20600;-73
2023/04/06 03:31:19;;;;;;;7.00;4.13;;;2.50;99.90;;;;;;4889418;29;20443;-73
2023/04/06 03:33:46;;;;;;;9.13;5.13;;;2.50;99.90;;;;;;4890074;29;20472;-73
2023/04/06 03:36:14;;;;;;;6.57;4.20;;;2.60;99.90;;;;;;4892617;29;20499;-73
2023/04/06 03:38:41;;;;;;;5.23;4.00;;;2.60;99.90;;;;;;4888718;29;20459;-74
2023/04/06 03:41:10;;;;;;;16.90;5.73;;;2.60;99.90;;;;;;4882218;29;20474;-75
2023/04/06 03:43:37;;;;;;;5.53;4.20;;;2.70;99.90;;;;;;4892391;29;20465;-75
2023/04/06 03:46:04;;;;;;;6.13;4.53;;;2.60;99.90;;;;;;4860091;29;20513;-75
2023/04/06 03:48:32;;;;;;;6.73;3.80;;;2.60;99.90;;;;;;4885391;29;20886;-78
2023/04/06 03:51:00;;;;;;;16.43;5.27;;;2.60;99.90;;;;;;4866272;29;21061;-78
2023/04/06 03:53:30;;;;;;;8.23;6.30;;;2.50;99.90;;;;;;4890960;29;20515;-75
2023/04/06 03:55:57;;;;;;;4.40;3.70;;;2.50;99.90;;;;;;4883672;29;20528;-75
2023/04/06 03:58:27;;;;;;;11.30;4.63;;;2.50;99.90;;;;;;4891003;29;21039;-75
2023/04/06 04:00:54;;;;;;;10.83;5.53;;;2.50;99.90;;;;;;4893634;29;21052;-74
2023/04/06 04:03:23;;;;;;;6.60;5.73;;;2.50;99.90;;;;;;4886869;29;20486;-74
2023/04/06 04:05:51;;;;;;;3.60;3.23;;;2.40;99.90;;;;;;4868299;29;20494;-74
2023/04/06 04:08:18;;;;;;;8.60;4.20;;;2.30;99.90;;;;;;4881072;29;20461;-73
2023/04/06 04:10:46;;;;;;;6.70;3.90;;;2.30;99.90;;;;;;4894068;29;20436;-74
2023/04/06 04:13:14;;;;;;;17.70;4.57;;;2.30;99.90;;;;;;4888126;29;20593;-73
2023/04/06 04:15:44;;;;;;;17.47;4.87;;;2.20;99.90;;;;;;4890094;29;20465;-76
2023/04/06 04:18:11;;;;;;;10.30;4.33;;;2.10;99.90;;;;;;4895245;29;20502;-74
2023/04/06 04:20:38;;;;;;;10.37;5.67;;;2.10;99.90;;;;;;4889826;29;20473;-73
2023/04/06 04:23:09;;;;;;;7.80;4.73;;;2.10;99.90;;;;;;4884951;29;20520;-74
2023/04/06 04:25:36;;;;;;;6.60;4.90;;;2.10;99.90;;;;;;4885313;29;20461;-75
2023/04/06 04:28:04;;;;;;;9.10;4.93;;;2.10;99.90;;;;;;4879545;29;20491;-75
2023/04/06 04:30:31;;;;;;;11.20;5.50;;;2.20;99.90;;;;;;4883193;29;20467;-75
2023/04/06 04:32:59;;;;;;;9.90;6.00;;;2.20;99.90;;;;;;4885167;29;20468;-75
2023/04/06 04:35:28;;;;;;;8.07;5.00;;;2.30;99.90;;;;;;4889926;29;20457;-74
2023/04/06 04:37:58;;;;;;;12.73;3.80;;;2.30;99.90;;;;;;4887277;29;20437;-74
2023/04/06 04:40:25;;;;;;;14.13;4.87;;;2.30;99.90;;;;;;4885118;29;20440;-74
2023/04/06 04:42:52;;;;;;;12.90;5.97;;;2.20;99.90;;;;;;4852818;29;20494;-77
2023/04/06 04:45:20;;;;;;;9.23;5.13;;;2.10;99.90;;;;;;4893308;29;20455;-74
2023/04/06 04:47:48;;;;;;;6.20;5.53;;;2.00;99.90;;;;;;4886040;29;21173;-75
2023/04/06 04:50:16;;;;;;;6.80;4.13;;;2.00;99.90;;;;;;4892116;29;20514;-74
2023/04/06 04:52:43;;;;;;;7.60;4.57;;;2.10;99.90;;;;;;4893829;29;20494;-74
2023/04/06 04:55:10;;;;;;;7.77;6.40;;;2.10;99.90;;;;;;4881262;29;20480;-74
2023/04/06 04:57:37;;;;;;;19.23;7.07;;;2.10;99.90;;;;;;4887797;29;20458;-76
2023/04/06 05:00:05;;;;;;;5.23;4.17;;;2.10;99.90;;;;;;4897559;29;20458;-75
2023/04/06 05:02:32;;;;;;;6.50;6.00;;;2.20;99.90;;;;;;4890168;29;20438;-74
2023/04/06 05:05:00;;;;;;;11.97;5.67;;;2.20;99.90;;;;;;4894150;29;20685;-74
2023/04/06 05:07:29;;;;;;;19.70;4.17;;;2.20;99.90;;;;;;4880074;29;20472;-75
2023/04/06 05:09:56;;;;;;;10.93;5.20;;;2.20;99.90;;;;;;4882460;29;20462;-75
2023/04/06 05:12:24;;;;;;;14.60;5.53;;;2.10;99.90;;;;;;4876946;29;21032;-75
2023/04/06 05:14:51;;;;;;;5.30;3.67;;;2.10;99.90;;;;;;4877447;29;21256;-75
2023/04/06 05:17:19;;;;;;;7.50;4.60;;;2.10;99.90;;;;;;4888503;29;20473;-74
2023/04/06 05:19:46;;;;;;;16.80;5.80;;;2.20;99.90;;;;;;4844953;29;20440;-75
2023/04/06 05:22:15;;;;;;;5.93;4.70;;;2.10;99.90;;;;;;4883684;29;20442;-74
2023/04/06 05:24:44;;;;;;;7.53;5.10;;;2.00;99.90;;;;;;4888086;29;21131;-74
2023/04/06 05:27:11;;;;;;;14.80;5.83;;;2.30;99.90;;;;;;4888881;29;20464;-74
2023/04/06 05:29:39;;;;;;;16.93;4.63;;;2.30;99.90;;;;;;4891453;29;20803;-75
2023/04/06 05:32:07;;;;;;;9.40;6.00;;;2.30;99.90;;;;;;4875750;29;20997;-74
2023/04/06 05:34:35;;;;;;;7.77;4.37;;;2.40;99.90;;;;;;4890317;29;20471;-75
2023/04/06 05:37:02;;;;;;;14.60;5.97;;;2.50;99.90;;;;;;4888776;29;20633;-75
2023/04/06 05:39:29;;;;;;;8.37;4.77;;;2.60;99.90;;;;;;4885227;29;20980;-76
2023/04/06 05:41:59;;;;;;;13.63;5.87;;;2.60;99.90;;;;;;4903622;29;20469;-74
2023/04/06 05:44:26;;;;;;;25.60;7.07;;;2.90;99.90;;;;;;4895568;29;20465;-75
2023/04/06 05:46:53;;;;;;;7.07;6.03;;;3.10;99.90;;;;;;4881984;29;20458;-75
2023/04/06 05:49:21;;;;;;;10.33;4.60;;;3.20;99.90;;;;;;4844149;29;20959;-73
2023/04/06 05:51:48;;;;;;;8.90;4.67;;;3.30;99.90;;;;;;4878903;29;20474;-73
2023/04/06 05:54:15;;;;;;;6.90;5.50;;;3.50;99.90;;;;;;4886108;29;20991;-74
2023/04/06 05:56:42;;;;;;;12.70;6.20;;;3.60;99.90;;;;;;4904056;29;20964;-74
2023/04/06 05:59:12;;;;;;;22.50;5.50;;;3.70;99.90;;;;;;4891580;29;20484;-74
2023/04/06 06:01:39;;;;;;;10.57;4.30;;;4.10;99.90;;;;;;4882555;29;20429;-74
2023/04/06 06:04:08;;;;;;;11.30;6.37;;;4.50;99.90;;;;;;4895735;29;20469;-75
2023/04/06 06:06:36;;;;;;;20.33;6.00;;;5.00;99.90;;;;;;4868429;29;20514;-75
2023/04/06 06:09:05;;;;;;;14.60;8.07;;;5.50;99.90;;;;;;4879756;29;20490;-74
2023/04/06 06:11:33;;;;;;;19.47;5.50;;;6.10;99.90;;;;;;4879202;29;20504;-75
2023/04/06 06:14:01;;;;;;;14.18;5.65;;;6.20;99.90;;;;;;4886638;29;20472;-74
2023/04/06 06:16:30;;;;;;;14.32;7.90;;;6.30;99.90;;;;;;4895227;29;20815;-75
2023/04/06 06:18:59;;;;;;;15.63;7.07;;;6.60;99.90;;;;;;4887511;29;20198;-75
2023/04/06 06:21:28;;;;;;;12.60;6.47;;;6.80;99.90;;;;;;4885376;29;20462;-73
2023/04/06 06:23:55;;;;;;;16.35;8.95;;;7.40;99.90;;;;;;4892780;29;20514;-73
2023/04/06 06:26:25;;;;;;;17.30;9.70;;;7.70;99.90;;;;;;4857357;29;20476;-73
2023/04/06 06:28:53;;;;;;;18.33;9.70;;;8.20;99.90;;;;;;4890181;29;20554;-73
2023/04/06 06:31:20;;;;;;;14.43;9.07;;;8.80;99.90;;;;;;4889487;29;20473;-75
2023/04/06 06:33:50;;;;;;;9.70;7.10;;;9.50;99.90;;;;;;4881988;29;20222;-73
2023/04/06 06:36:17;;;;;;;12.40;8.03;;;9.60;99.90;;;;;;4871611;29;20437;-73
2023/04/06 06:38:56;;;;;;;10.50;7.77;;;9.80;99.90;;;;;;4890227;29;20450;-73
2023/04/06 06:41:23;;;;;;;15.97;6.90;;;10.20;99.90;;;;;;4894143;29;20458;-74
2023/04/06 06:43:51;;;;;;;8.93;5.70;;;10.50;99.90;;;;;;4891724;29;20561;-74
2023/04/06 06:46:18;;;;;;;14.27;7.00;;;10.60;99.90;;;;;;4895772;29;20470;-74
2023/04/06 06:48:45;;;;;;;9.53;5.77;;;10.60;99.90;;;;;;4894663;29;20490;-74
2023/04/06 06:51:13;;;;;;;8.70;5.80;;;10.90;99.90;;;;;;4895038;29;20466;-75
2023/04/06 06:53:42;;;;;;;7.60;5.53;;;11.00;99.90;;;;;;4901152;29;20494;-74
2023/04/06 06:56:09;;;;;;;11.10;7.30;;;11.00;99.90;;;;;;4895422;29;20649;-74
2023/04/06 06:58:36;;;;;;;11.83;7.40;;;11.50;99.90;;;;;;4894533;29;20439;-74
2023/04/06 07:01:04;;;;;;;17.60;6.17;;;12.10;99.80;;;;;;4889117;29;20473;-74
2023/04/06 07:03:32;;;;;;;7.03;5.20;;;12.40;98.80;;;;;;4893667;29;20574;-75
2023/04/06 07:05:59;;;;;;;8.73;5.23;;;13.00;98.30;;;;;;4887084;29;20472;-74
2023/04/06 07:08:27;;;;;;;8.30;5.33;;;13.20;96.80;;;;;;4890234;29;20502;-74
2023/04/06 07:10:55;;;;;;;23.47;6.87;;;13.10;95.80;;;;;;4885443;29;20471;-74
2023/04/06 07:13:23;;;;;;;8.33;4.47;;;13.50;94.70;;;;;;4890430;29;21024;-74
2023/04/06 07:15:51;;;;;;;12.53;6.27;;;13.90;93.30;;;;;;4885245;29;20458;-74
2023/04/06 07:18:21;;;;;;;8.57;4.57;;;14.00;91.50;;;;;;4887626;29;20531;-74
2023/04/06 07:20:49;;;;;;;7.20;4.67;;;14.60;90.10;;;;;;4883792;29;20482;-74
2023/04/06 07:23:16;;;;;;;7.23;6.40;;;14.90;82.50;;;;;;4887702;29;20591;-75
2023/04/06 07:25:45;;;;;;;5.63;4.30;;;14.90;81.00;;;;;;4890454;29;20472;-74
2023/04/06 07:28:12;;;;;;;6.47;4.47;;;15.10;80.10;;;;;;4879489;29;20488;-74
2023/04/06 07:30:40;;;;;;;5.70;4.30;;;15.00;77.70;;;;;;4880128;29;20466;-74
2023/04/06 07:33:10;;;;;;;8.87;6.07;;;14.50;74.70;;;;;;4881269;29;20489;-74
2023/04/06 07:35:37;;;;;;;16.60;5.60;;;14.50;73.10;;;;;;4883755;29;21667;-74
2023/04/06 07:38:04;;;;;;;6.80;4.37;;;14.60;73.40;;;;;;4888762;29;20546;-75
2023/04/06 07:40:32;;;;;;;21.83;4.70;;;14.20;70.20;;;;;;4879979;29;20471;-74
2023/04/06 07:43:01;;;;;;;14.63;6.33;;;13.90;73.10;;;;;;4880842;29;20493;-73
2023/04/06 07:45:29;;;;;;;5.87;4.50;;;14.10;72.70;;;;;;4872900;29;20475;-75
2023/04/06 07:47:56;;;;;;;6.37;5.53;;;14.10;74.00;;;;;;4871199;29;20474;-74
2023/04/06 07:50:23;;;;;;;6.60;5.07;;;14.50;71.80;;;;;;4878457;29;20538;-73
2023/04/06 07:52:50;;;;;;;6.60;3.83;;;14.70;70.10;;;;;;4862724;29;20569;-73
2023/04/06 07:55:17;;;;;;;12.20;4.70;;;14.80;66.40;;;;;;4893185;29;20704;-73
2023/04/06 07:57:45;;;;;;;7.83;5.27;;;14.80;66.00;;;;;;4896895;29;20558;-73
2023/04/06 08:00:14;;;;;;;6.30;4.83;;;15.20;65.50;;;;;;4892253;29;20551;-73
2023/04/06 08:02:42;;;;;;;6.27;4.53;;;15.50;63.90;;;;;;4880535;29;20497;-74
2023/04/06 08:05:10;;;;;;;5.77;5.00;;;15.70;62.70;;;;;;4872831;29;20534;-74
2023/04/06 08:07:37;;;;;;;11.93;5.40;;;16.20;61.60;;;;;;4871488;29;20470;-74
2023/04/06 08:10:05;;;;;;;8.20;5.70;;;16.40;60.70;;;;;;4873771;29;20501;-74
2023/04/06 08:12:34;;;;;;;11.93;5.10;;;16.80;59.70;;;;;;4883063;29;20471;-74
2023/04/06 08:15:03;;;;;;;13.70;5.33;;;17.30;58.90;;;;;;4894014;29;20962;-74
2023/04/06 08:17:33;;;;;;;7.33;4.53;;;17.20;58.50;;;;;;4831941;29;20467;-73
2023/04/06 08:20:03;;;;;;;14.40;6.30;;;17.80;58.00;;;;;;4870633;29;20605;-74
2023/04/06 08:22:30;;;;;;;8.73;5.13;;;18.30;57.30;;;;;;4870049;29;20486;-73
2023/04/06 08:24:58;;;;;;;6.47;5.57;;;17.70;57.00;;;;;;4869428;29;20470;-74
2023/04/06 08:27:25;;;;;;;8.90;5.97;;;17.70;56.10;;;;;;4867868;29;20683;-74
2023/04/06 08:29:53;;;;;;;8.53;5.47;;;17.10;56.00;;;;;;4867953;29;20514;-73
2023/04/06 08:32:20;;;;;;;10.90;5.83;;;17.40;56.30;;;;;;4876520;29;20471;-72
2023/04/06 08:34:48;;;;;;;9.50;5.77;;;17.90;55.60;;;;;;4886679;29;20480;-74
2023/04/06 08:37:15;;;;;;;11.47;6.30;;;17.90;54.90;;;;;;4870772;29;20458;-74
2023/04/06 08:39:42;;;;;;;8.30;6.30;;;17.60;54.70;;;;;;4894314;29;20470;-75
2023/04/06 08:42:17;;;;;;;11.40;6.83;;;17.20;54.80;;;;;;4901052;29;20486;-73
2023/04/06 08:44:45;;;;;;;7.97;7.10;;;17.60;55.70;;;;;;4873529;29;20447;-75
2023/04/06 08:47:12;;;;;;;9.10;6.93;;;18.40;54.70;;;;;;4848203;29;20470;-73
2023/04/06 08:49:41;;;;;;;12.20;7.03;;;19.00;53.70;;;;;;4888275;29;20482;-74
2023/04/06 08:52:11;;;;;;;9.30;6.70;;;19.60;51.60;;;;;;4870621;29;20493;-74
2023/04/06 08:54:39;;;;;;;20.77;7.07;;;19.30;52.10;;;;;;4872635;29;20466;-74
2023/04/06 08:57:07;;;;;;;7.23;5.67;;;20.50;51.70;;;;;;4873352;29;20467;-74
2023/04/06 08:59:35;;;;;;;9.43;6.93;;;21.10;51.10;;;;;;4861816;29;20470;-74
2023/04/06 09:02:06;;;;;;;13.30;7.70;;;21.90;49.30;;;;;;4871164;29;20473;-74
2023/04/06 09:04:34;;;;;;;12.50;8.77;;;21.90;47.40;;;;;;4868724;29;20466;-75
2023/04/06 09:07:02;;;;;;;14.77;7.83;;;21.30;48.30;;;;;;4870045;29;20740;-75
2023/04/06 09:09:31;;;;;;;13.00;8.77;;;22.00;50.00;;;;;;4866291;29;20510;-74
2023/04/06 09:12:03;;;;;;;12.30;9.57;;;22.80;47.70;;;;;;4849375;29;20467;-74
2023/04/06 09:14:37;;;;;;;11.83;10.00;;;22.90;47.80;;;;;;4878936;29;21042;-74
2023/04/06 09:17:06;;;;;;;9.63;8.47;;;22.50;44.10;;;;;;4871784;29;20847;-73
2023/04/06 09:19:34;;;;;;;10.97;8.00;;;20.70;45.00;;;;;;4877461;29;20891;-73
2023/04/06 09:22:06;;;;;;;11.07;8.07;;;19.60;45.50;;;;;;4878737;29;20485;-73
2023/04/06 09:24:46;;;;;;;15.80;8.97;;;19.00;46.10;;;;;;4879019;29;20488;-73
2023/04/06 09:27:13;;;;;;;11.40;7.70;;;18.80;46.00;;;;;;4875475;29;20474;-73
2023/04/06 09:29:41;;;;;;;9.83;7.93;;;18.80;46.80;;;;;;4879687;29;20843;-74
2023/04/06 09:32:11;;;;;;;13.50;8.73;;;18.90;46.50;;;;;;4885679;29;20490;-73
2023/04/06 09:34:42;;;;;;;15.80;8.37;;;19.10;46.60;;;;;;4882864;29;20484;-73
2023/04/06 09:37:16;;;;;;;12.83;8.43;;;19.00;46.60;;;;;;4884188;29;20469;-73
2023/04/06 09:39:46;;;;;;;12.07;7.63;;;19.20;47.50;;;;;;4897060;29;20515;-74
2023/04/06 09:42:26;;;;;;;11.50;8.17;;;19.50;46.20;;;;;;4902391;29;20457;-73
2023/04/06 09:44:54;;;;;;;10.13;7.23;;;18.90;45.60;;;;;;4893753;29;20442;-73
2023/04/06 09:47:23;;;;;;;11.47;8.17;;;17.80;45.00;;;;;;4887519;29;20467;-73
2023/04/06 09:49:55;;;;;;;14.00;8.07;;;17.60;48.40;;;;;;4893720;29;21081;-74
2023/04/06 09:52:24;;;;;;;9.77;6.20;;;16.90;47.00;;;;;;4893677;29;20470;-73
2023/04/06 09:54:56;;;;;;;7.93;4.33;;;16.80;48.30;;;;;;4881134;29;20469;-74
2023/04/06 09:57:29;;;;;;;12.20;7.30;;;16.80;47.40;;;;;;4893060;29;20988;-74
2023/04/06 10:00:07;;;;;;;10.77;6.27;;;17.00;48.20;;;;;;4892323;29;21394;-74
2023/04/06 10:02:42;;;;;;;14.57;8.00;;;17.30;47.20;;;;;;4896218;29;20481;-74
2023/04/06 10:05:13;;;;;;;9.00;6.47;;;17.10;48.10;;;;;;4897111;29;20465;-74
2023/04/06 10:07:43;;;;;;;15.43;7.20;;;17.50;48.20;;;;;;4890825;29;20471;-74
2023/04/06 10:10:15;;;;;;;6.10;4.00;;;17.40;47.00;;;;;;4886791;29;20487;-74
2023/04/06 10:12:44;;;;;;;8.80;5.63;;;17.60;47.40;;;;;;4892861;29;20943;-76
2023/04/06 10:15:13;;;;;;;11.43;6.50;;;17.40;47.50;;;;;;4895230;29;20469;-74
2023/04/06 10:17:40;;;;;;;10.97;6.60;;;16.90;46.70;;;;;;4892397;29;20474;-73
2023/04/06 10:20:13;;;;;;;13.63;6.57;;;17.70;47.10;;;;;;4895865;29;20526;-73
2023/04/06 10:22:52;;;;;;;11.63;7.50;;;18.30;47.20;;;;;;4886638;29;20494;-74
2023/04/06 10:25:27;;;;;;;10.00;7.00;;;18.70;47.50;;;;;;4895552;29;20454;-73
2023/04/06 10:28:01;;;;;;;10.97;6.07;;;19.10;46.70;;;;;;4846161;29;20545;-73
2023/04/06 10:30:29;;;;;;;15.70;7.50;;;19.60;47.50;;;;;;4897097;29;20498;-73
2023/04/06 10:32:58;;;;;;;14.97;7.03;;;19.00;46.00;;;;;;4888428;29;20489;-74
2023/04/06 10:35:25;;;;;;;8.20;6.43;;;18.50;45.70;;;;;;4886008;29;20466;-74
2023/04/06 10:37:53;;;;;;;12.00;7.43;;;18.50;46.10;;;;;;4896496;29;20462;-73
2023/04/06 10:40:25;;;;;;;13.93;6.97;;;18.40;47.40;;;;;;4892067;29;21553;-74
2023/04/06 10:42:52;;;;;;;14.17;9.37;;;19.60;46.10;;;;;;4894247;29;20505;-73
2023/04/06 10:45:24;;;;;;;14.20;9.20;;;19.70;45.70;;;;;;4896734;29;20545;-73
2023/04/06 10:47:53;;;;;;;15.27;8.93;;;20.30;45.90;;;;;;4897516;29;20614;-73
2023/04/06 10:50:23;;;;;;;14.20;8.57;;;20.10;43.60;;;;;;4895643;29;20513;-72
2023/04/06 10:53:01;;;;;;;16.33;8.80;;;19.80;44.70;;;;;;4898934;29;20474;-73
2023/04/06 10:55:31;;;;;;;12.13;7.90;;;19.60;45.40;;;;;;4900843;29;20464;-73
2023/04/06 10:57:58;;;;;;;11.17;7.70;;;18.90;45.80;;;;;;4897779;29;20453;-75
2023/04/06 11:00:26;;;;;;;14.17;9.93;;;18.60;46.30;;;;;;4903353;29;20640;-73
2023/04/06 11:03:00;;;;;;;13.90;8.57;;;18.70;46.30;;;;;;4897453;29;20506;-73
2023/04/06 11:05:30;;;;;;;9.43;7.80;;;18.60;46.80;;;;;;4894267;29;20462;-73
2023/04/06 11:07:57;;;;;;;12.57;8.37;;;19.30;46.20;;;;;;4898970;29;20542;-73
2023/04/06 11:10:24;;;;;;;12.90;7.97;;;19.50;47.20;;;;;;4897772;29;20487;-73
2023/04/06 11:12:58;;;;;;;10.70;7.47;;;19.90;45.80;;;;;;4895402;29;20471;-73
2023/04/06 11:15:25;;;;;;;13.10;8.63;;;20.20;47.30;;;;;;4897258;29;20450;-74
2023/04/06 11:17:53;;;;;;;18.13;7.43;;;19.40;47.40;;;;;;4897172;29;21742;-73
2023/04/06 11:20:21;;;;;;;15.07;7.77;;;19.50;45.80;;;;;;4901579;29;20446;-73
2023/04/06 11:22:52;;;;;;;15.97;6.87;;;19.50;45.40;;;;;;4891718;29;20474;-74
2023/04/06 11:25:20;;;;;;;8.13;6.50;;;19.50;45.10;;;;;;4889969;29;20466;-73
2023/04/06 11:27:48;;;;;;;16.30;7.77;;;19.80;43.50;;;;;;4862140;29;21364;-75
2023/04/06 11:30:17;;;;;;;15.13;9.07;;;19.20;42.80;;;;;;4893736;29;20490;-74
2023/04/06 11:32:45;;;;;;;10.17;6.03;;;19.00;43.40;;;;;;4891978;29;20482;-75
2023/04/06 11:35:19;;;;;;;12.00;7.03;;;18.40;41.90;;;;;;4906412;29;20456;-74
2023/04/06 11:37:47;;;;;;;8.60;7.40;;;17.90;42.50;;;;;;4895638;29;20851;-75
2023/04/06 11:40:15;;;;;;;9.50;7.03;;;18.20;44.60;;;;;;4892207;29;20471;-75
2023/04/06 11:42:44;;;;;;;14.10;7.70;;;18.40;43.40;;;;;;4897210;29;20601;-73
2023/04/06 11:45:17;;;;;;;14.77;5.53;;;18.30;41.70;;;;;;4897980;29;20459;-73
2023/04/06 11:47:45;;;;;;;12.53;8.30;;;18.00;41.90;;;;;;4894585;29;20455;-73
2023/04/06 11:50:14;;;;;;;14.43;8.60;;;17.40;44.60;;;;;;4887534;29;20499;-74
2023/04/06 11:52:43;;;;;;;14.33;8.10;;;17.40;45.10;;;;;;4893672;29;20477;-73
2023/04/06 11:55:15;;;;;;;14.67;8.00;;;17.10;45.80;;;;;;4892738;29;20444;-73
2023/04/06 11:57:42;;;;;;;12.13;7.27;;;17.10;46.70;;;;;;4894138;29;20450;-73
2023/04/06 12:00:11;;;;;;;15.30;9.10;;;17.30;46.70;;;;;;4897896;29;20512;-74
2023/04/06 12:02:40;;;;;;;18.50;9.47;;;17.90;47.80;;;;;;4896713;29;20481;-73
2023/04/06 12:05:10;;;;;;;13.40;8.10;;;17.90;48.10;;;;;;4896118;29;20899;-76
2023/04/06 12:07:37;;;;;;;16.57;8.13;;;18.10;48.30;;;;;;4888993;29;20463;-73
2023/04/06 12:10:05;;;;;;;13.63;7.13;;;18.30;47.20;;;;;;4883999;29;20501;-73
2023/04/06 12:12:34;;;;;;;14.07;10.20;;;17.90;47.60;;;;;;4874688;29;21080;-73
2023/04/06 12:15:01;;;;;;;9.20;4.97;;;18.10;48.10;;;;;;4888661;29;20475;-72
2023/04/06 12:17:29;;;;;;;13.03;8.87;;;18.40;48.10;;;;;;4893003;29;20470;-74
2023/04/06 12:19:57;;;;;;;14.40;9.13;;;18.20;47.60;;;;;;4880502;29;20466;-73
2023/04/06 12:22:25;;;;;;;16.37;9.10;;;17.70;48.00;;;;;;4883924;29;20501;-73
2023/04/06 12:24:52;;;;;;;11.03;8.30;;;17.70;48.70;;;;;;4890773;29;20458;-74
2023/04/06 12:27:19;;;;;;;15.90;8.80;;;17.90;48.90;;;;;;4898950;29;20471;-74
2023/04/06 12:29:51;;;;;;;12.40;7.97;;;18.30;48.50;;;;;;4897501;29;20529;-74
2023/04/06 12:32:18;;;;;;;20.57;9.23;;;18.50;48.20;;;;;;4872700;29;21233;-74
2023/04/06 12:34:48;;;;;;;12.73;7.43;;;17.80;48.60;;;;;;4889051;29;20463;-73
2023/04/06 12:37:26;;;;;;;11.53;6.40;;;18.20;48.90;;;;;;4902616;29;20467;-74
2023/04/06 12:39:54;;;;;;;12.73;8.37;;;18.50;48.70;;;;;;4897722;29;20459;-73
2023/04/06 12:42:22;;;;;;;15.87;7.07;;;19.20;50.10;;;;;;4887593;29;21157;-74
2023/04/06 12:44:50;;;;;;;13.87;7.27;;;19.60;48.50;;;;;;4849734;29;20463;-74
2023/04/06 12:47:18;;;;;;;12.13;7.20;;;19.40;47.90;;;;;;4889483;29;20482;-74
2023/04/06 12:49:48;;;;;;;10.27;6.00;;;19.50;49.60;;;;;;4858004;29;20463;-74
2023/04/06 12:52:22;;;;;;;11.27;7.37;;;19.30;48.70;;;;;;4884551;29;20466;-73